Main page
METAR-TAF:

METAR-TAF

Airports :

Tabas Airport

Tabas, Iran

latitude: 33-36N, longitude: 056-55E, elevation: 710 m

Current weather observation

The report was made 3 hours and 30 minutes ago, at 06:00 UTC
Wind 2 kt from the West
Temperature 16°C
Humidity 36%
Pressure 1021 hPa

METAR: OIMT 240600Z AUTO 27002KT //// // ////// 16/01 Q1021

Time: 13:00 (09:30 UTC)


TAF: missing

Weather observations and forecasts of more than 4000 airports (METAR and TAF reports).

The available stations are represented by yellow and red dots on the map.

Hover mouse over dot to see the name of the station.

Then click to see weather observations and forecasts.

To change the map : click on the green buttons with a black cross to zoom in, on the green button with a dash to zoom out, or on the green arrows for adjacent maps.


METAR-TAF: